Time;durP1;ratioP1;P1;durP2;ratioP2;P2;SDS_P1;SDS_P2;PMS_P1;PMS_P2;Temp;Humidity;BMP_temperature;BMP_pressure;BME280_temperature;BME280_humidity;BME280_pressure;Samples;Min_cycle;Max_cycle;Signal;HPM_P1;HPM_P2
2022/02/24 00:01:46;;;;;;;5.57;2.25;;;;;;;15.13;35.90;101739.88;143724;596;47006;-71
2022/02/24 00:04:12;;;;;;;7.80;2.50;;;;;;;15.19;35.55;101732.00;143723;566;46023;-71
2022/02/24 00:06:39;;;;;;;7.62;2.50;;;;;;;15.12;34.99;101742.81;143724;590;47004;-72
2022/02/24 00:09:07;;;;;;;6.85;3.62;;;;;;;15.13;35.03;101739.06;143724;568;47010;-72
2022/02/24 00:11:37;;;;;;;7.07;3.47;;;;;;;15.15;34.95;101747.81;143723;579;47006;-71
2022/02/24 00:14:04;;;;;;;6.68;3.53;;;;;;;15.14;34.37;101735.31;143726;644;47009;-72
2022/02/24 00:16:30;;;;;;;4.00;2.45;;;;;;;15.15;33.85;101737.00;143723;662;47006;-72
2022/02/24 00:18:57;;;;;;;3.83;2.10;;;;;;;15.13;33.94;101720.94;143721;640;47012;-73
2022/02/24 00:21:23;;;;;;;3.80;1.87;;;;;;;15.15;33.69;101715.34;143724;581;47006;-73
2022/02/24 00:23:50;;;;;;;5.30;2.35;;;;;;;15.03;33.03;101720.50;143725;586;47008;-71
2022/02/24 00:26:17;;;;;;;5.75;2.53;;;;;;;14.91;32.62;101708.63;143725;566;47004;-71
2022/02/24 00:28:43;;;;;;;5.28;2.87;;;;;;;14.86;32.88;101711.91;143724;589;47012;-71
2022/02/24 00:31:10;;;;;;;3.65;1.92;;;;;;;14.81;32.17;101693.59;143721;573;47006;-72
2022/02/24 00:33:38;;;;;;;5.35;2.25;;;;;;;14.78;32.63;101695.88;143726;586;47008;-72
2022/02/24 00:36:05;;;;;;;4.78;2.20;;;;;;;14.76;32.67;101700.66;143725;581;48002;-71
2022/02/24 00:38:33;;;;;;;2.85;2.00;;;;;;;14.85;32.46;101686.75;143726;595;47010;-72
2022/02/24 00:40:59;;;;;;;25.23;14.23;;;;;;;14.91;32.49;101695.09;143723;692;47006;-72
2022/02/24 00:43:26;;;;;;;3.30;1.95;;;;;;;14.95;32.10;101702.59;143723;573;47009;-72
2022/02/24 00:45:52;;;;;;;5.32;1.90;;;;;;;15.00;32.05;101673.03;143721;575;48018;-73
2022/02/24 00:48:19;;;;;;;4.70;2.20;;;;;;;15.00;31.80;101677.63;143725;629;47010;-73
2022/02/24 00:50:45;;;;;;;6.87;2.12;;;;;;;14.98;32.57;101667.03;143723;569;47006;-72
2022/02/24 00:53:12;;;;;;;7.12;4.12;;;;;;;14.94;33.75;101659.50;143724;579;47008;-72
2022/02/24 00:55:38;;;;;;;13.85;5.65;;;;;;;14.88;34.32;101636.81;143724;583;47002;-73
2022/02/24 00:58:04;;;;;;;8.68;5.30;;;;;;;14.65;34.64;101653.38;143725;622;47009;-72
2022/02/24 01:00:31;;;;;;;8.05;3.20;;;;;;;14.49;35.61;101638.31;143723;592;47004;-74
2022/02/24 01:02:57;;;;;;;7.95;3.72;;;;;;;14.52;35.37;101637.91;143722;572;47002;-73
2022/02/24 01:05:24;;;;;;;7.12;2.62;;;;;;;14.51;35.35;101645.22;143724;567;47002;-73
2022/02/24 01:07:50;;;;;;;8.38;3.28;;;;;;;14.50;34.93;101645.41;143725;567;47010;-74
2022/02/24 01:10:17;;;;;;;7.22;2.75;;;;;;;14.41;35.82;101644.75;143724;582;47002;-74
2022/02/24 01:12:43;;;;;;;7.75;3.58;;;;;;;14.40;35.65;101684.47;143723;593;47007;-74
2022/02/24 01:15:11;;;;;;;6.00;2.65;;;;;;;14.34;35.22;101697.94;143719;567;47002;-74
2022/02/24 01:17:40;;;;;;;8.43;2.65;;;;;;;14.31;35.05;101677.53;143720;678;47010;-74
2022/02/24 01:20:08;;;;;;;9.70;3.25;;;;;;;14.33;35.16;101682.75;143716;617;47004;-75
2022/02/24 01:22:34;;;;;;;8.23;3.00;;;;;;;14.30;35.73;101708.28;143720;699;46006;-73
2022/02/24 01:25:01;;;;;;;5.22;3.22;;;;;;;14.34;35.95;101714.16;143720;579;47004;-72
2022/02/24 01:27:28;;;;;;;7.03;2.50;;;;;;;14.42;35.94;101727.50;143718;625;47010;-73
2022/02/24 01:29:54;;;;;;;7.05;2.70;;;;;;;14.46;35.66;101736.06;143717;687;47004;-73
2022/02/24 01:32:21;;;;;;;7.40;2.40;;;;;;;14.37;35.64;101725.37;143723;584;46006;-74
2022/02/24 01:34:47;;;;;;;5.22;2.65;;;;;;;14.40;35.64;101740.38;143717;573;47002;-73
2022/02/24 01:37:14;;;;;;;5.62;2.35;;;;;;;14.34;35.81;101727.66;143719;597;47008;-72
2022/02/24 01:39:40;;;;;;;10.00;2.65;;;;;;;14.28;35.30;101732.00;143714;569;47004;-73
2022/02/24 01:42:07;;;;;;;5.28;2.30;;;;;;;14.29;35.34;101739.09;143720;575;47006;-75
2022/02/24 01:44:44;;;;;;;8.38;3.53;;;;;;;14.39;35.02;101734.13;143720;754;47002;-73
2022/02/24 01:47:11;;;;;;;3.33;2.08;;;;;;;14.41;34.61;101755.56;143717;602;47010;-74
2022/02/24 01:49:39;;;;;;;4.37;2.50;;;;;;;14.44;34.34;101735.41;143717;590;47003;-73
2022/02/24 01:52:07;;;;;;;5.55;2.70;;;;;;;14.47;34.02;101740.44;143716;615;47008;-73
2022/02/24 01:54:37;;;;;;;6.43;2.50;;;;;;;14.41;34.31;101750.16;143719;599;47004;-75
2022/02/24 01:57:04;;;;;;;7.93;2.53;;;;;;;14.31;34.11;101736.97;143718;606;47011;-72
2022/02/24 01:59:32;;;;;;;6.70;2.65;;;;;;;14.35;34.02;101734.75;143720;596;47006;-72
2022/02/24 02:01:59;;;;;;;5.07;2.47;;;;;;;14.34;34.29;101742.00;143720;569;47008;-74
2022/02/24 02:04:25;;;;;;;5.25;2.70;;;;;;;14.42;33.94;101737.47;143724;657;47006;-73
2022/02/24 02:06:54;;;;;;;4.75;2.70;;;;;;;14.49;33.73;101736.47;143718;682;47010;-71
2022/02/24 02:09:21;;;;;;;4.75;2.67;;;;;;;14.50;33.31;101718.37;143720;681;47006;-71
2022/02/24 02:11:47;;;;;;;10.38;6.55;;;;;;;14.48;33.11;101723.16;143720;573;47008;-72
2022/02/24 02:14:14;;;;;;;25.62;21.60;;;;;;;14.48;32.80;101713.19;143718;573;47006;-72
2022/02/24 02:16:48;;;;;;;7.72;4.97;;;;;;;14.49;33.55;101714.84;143719;567;47010;-72
2022/02/24 02:19:16;;;;;;;5.07;2.67;;;;;;;14.46;32.82;101719.84;143717;616;48004;-73
2022/02/24 02:21:43;;;;;;;5.35;2.97;;;;;;;14.44;31.21;101711.91;143723;616;46008;-72
2022/02/24 02:24:10;;;;;;;6.07;3.62;;;;;;;14.37;31.65;101701.06;143723;580;47006;-73
2022/02/24 02:26:37;;;;;;;4.97;3.30;;;;;;;14.31;31.16;101709.16;143720;584;47010;-71
2022/02/24 02:29:08;;;;;;;6.60;3.22;;;;;;;14.20;30.98;101700.56;143722;590;47004;-73
2022/02/24 02:31:35;;;;;;;4.05;2.80;;;;;;;14.20;30.99;101695.16;143718;586;47008;-73
2022/02/24 02:34:13;;;;;;;5.82;2.75;;;;;;;14.20;31.50;101670.00;143721;602;47006;-73
2022/02/24 02:36:41;;;;;;;4.90;2.50;;;;;;;14.10;32.08;101682.00;143720;584;47010;-73
2022/02/24 02:39:13;;;;;;;6.70;2.83;;;;;;;14.13;32.46;101690.72;143718;577;47004;-71
2022/02/24 02:41:42;;;;;;;6.07;2.80;;;;;;;14.16;32.28;101693.88;143721;684;47009;-73
2022/02/24 02:44:12;;;;;;;6.20;2.35;;;;;;;14.18;32.45;101662.09;143725;589;47006;-71
2022/02/24 02:46:38;;;;;;;4.47;2.70;;;;;;;13.99;32.23;101695.22;143716;582;47012;-71
2022/02/24 02:49:05;;;;;;;5.03;2.70;;;;;;;14.05;32.71;101697.13;143708;569;52005;-72
2022/02/24 02:51:32;;;;;;;5.75;2.60;;;;;;;13.98;31.85;101697.09;143716;698;47008;-72
2022/02/24 02:53:58;;;;;;;6.47;2.83;;;;;;;13.90;31.39;101703.47;143723;584;47004;-71
2022/02/24 02:56:25;;;;;;;4.37;2.53;;;;;;;13.95;32.08;101684.81;143719;585;47011;-72
2022/02/24 02:58:51;;;;;;;6.12;2.78;;;;;;;14.09;31.71;101691.16;143718;573;47006;-73
2022/02/24 03:01:18;;;;;;;3.92;2.90;;;;;;;14.15;32.17;101688.66;143723;574;47008;-74
2022/02/24 03:03:44;;;;;;;6.00;2.50;;;;;;;14.14;32.00;101695.09;143718;573;47006;-72
2022/02/24 03:06:11;;;;;;;5.78;2.60;;;;;;;14.08;32.02;101696.72;143717;588;47010;-72
2022/02/24 03:08:37;;;;;;;3.65;2.75;;;;;;;14.05;32.34;101691.72;143718;572;47006;-72
2022/02/24 03:11:04;;;;;;;4.57;2.83;;;;;;;14.02;32.19;101692.16;143721;599;47008;-73
2022/02/24 03:13:30;;;;;;;7.75;2.97;;;;;;;14.02;32.44;101676.75;143719;606;47004;-73
2022/02/24 03:15:57;;;;;;;3.15;2.60;;;;;;;13.97;31.43;101722.41;143721;687;47010;-73
2022/02/24 03:18:23;;;;;;;6.55;3.10;;;;;;;13.99;31.27;101706.03;143720;579;47006;-73
2022/02/24 03:20:50;;;;;;;5.62;2.60;;;;;;;14.02;31.40;101703.75;143721;664;47008;-72
2022/02/24 03:23:16;;;;;;;5.43;2.92;;;;;;;14.08;31.06;101691.34;143720;659;47004;-74
2022/02/24 03:25:43;;;;;;;6.60;2.62;;;;;;;14.03;30.68;101716.25;143717;573;47012;-72
2022/02/24 03:28:09;;;;;;;10.45;3.22;;;;;;;13.94;30.61;101714.75;143713;634;47006;-70
2022/02/24 03:30:37;;;;;;;4.80;2.50;;;;;;;13.94;31.14;101725.53;143722;602;46008;-75
2022/02/24 03:33:05;;;;;;;4.25;2.58;;;;;;;13.99;30.91;101728.47;143718;566;47004;-72
2022/02/24 03:35:31;;;;;;;6.75;3.28;;;;;;;13.95;31.03;101701.03;143719;593;47010;-71
2022/02/24 03:37:59;;;;;;;6.80;3.33;;;;;;;13.98;30.36;101716.00;143721;711;47006;-72
2022/02/24 03:40:26;;;;;;;7.65;2.95;;;;;;;13.95;30.25;101716.38;143721;642;46008;-73
2022/02/24 03:42:52;;;;;;;11.12;3.15;;;;;;;13.98;30.64;101721.37;143723;589;47004;-72
2022/02/24 03:45:18;;;;;;;7.22;3.35;;;;;;;13.94;30.67;101722.84;143720;565;47010;-71
2022/02/24 03:47:45;;;;;;;8.23;3.17;;;;;;;13.78;31.09;101710.44;143722;585;47006;-72
2022/02/24 03:50:13;;;;;;;6.05;3.03;;;;;;;13.83;30.54;101709.84;143717;707;46928;-72
2022/02/24 03:52:40;;;;;;;4.85;2.53;;;;;;;13.86;30.35;101717.56;143717;588;47006;-72
2022/02/24 03:55:08;;;;;;;5.60;2.95;;;;;;;13.92;29.88;101719.50;143717;593;47012;-72
2022/02/24 03:57:34;;;;;;;4.62;3.05;;;;;;;13.94;30.43;101717.44;143720;603;47006;-72
2022/02/24 04:00:01;;;;;;;5.75;2.70;;;;;;;13.97;29.44;101725.13;143719;651;47008;-72
2022/02/24 04:02:27;;;;;;;5.70;2.60;;;;;;;13.91;28.66;101710.53;143722;580;47006;-73
2022/02/24 04:04:54;;;;;;;4.50;3.05;;;;;;;13.95;29.39;101702.88;143718;587;47011;-73
2022/02/24 04:07:20;;;;;;;4.32;2.70;;;;;;;13.88;28.23;101712.81;143715;569;47006;-73
2022/02/24 04:09:46;;;;;;;6.93;2.70;;;;;;;13.94;28.54;101704.75;143720;582;47008;-72
2022/02/24 04:12:16;;;;;;;5.78;2.50;;;;;;;13.92;27.87;101697.87;143721;579;47004;-73
2022/02/24 04:14:43;;;;;;;5.15;3.00;;;;;;;13.95;28.27;101694.78;143718;593;47012;-73
2022/02/24 04:17:09;;;;;;;6.47;3.25;;;;;;;13.97;28.05;101700.00;143719;568;47004;-72
2022/02/24 04:19:36;;;;;;;8.85;2.70;;;;;;;13.94;28.13;101693.12;143721;567;47009;-71
2022/02/24 04:22:03;;;;;;;5.10;2.30;;;;;;;13.96;28.48;101688.34;143719;584;47006;-72
2022/02/24 04:24:30;;;;;;;6.00;2.67;;;;;;;13.97;28.70;101679.22;143720;573;47012;-73
2022/02/24 04:26:56;;;;;;;5.28;3.12;;;;;;;14.00;28.82;101683.41;143717;619;47007;-73
2022/02/24 04:29:23;;;;;;;9.95;3.03;;;;;;;13.93;28.79;101667.16;143721;595;46008;-73
2022/02/24 04:31:49;;;;;;;5.45;2.72;;;;;;;13.80;29.10;101654.37;143716;657;47004;-72
2022/02/24 04:34:15;;;;;;;7.15;2.87;;;;;;;13.76;29.14;101664.75;143716;592;47011;-73
2022/02/24 04:36:42;;;;;;;8.30;2.60;;;;;;;13.83;29.60;101680.16;143722;607;47004;-73
2022/02/24 04:39:08;;;;;;;4.62;2.62;;;;;;;13.79;29.66;101694.03;143724;566;47008;-74
2022/02/24 04:41:35;;;;;;;6.57;3.03;;;;;;;13.75;29.56;101662.22;143716;608;47006;-72
2022/02/24 04:44:01;;;;;;;6.80;2.90;;;;;;;13.74;28.60;101687.56;143717;574;47010;-74
2022/02/24 04:46:27;;;;;;;5.50;2.12;;;;;;;13.71;28.22;101709.53;143721;572;47006;-73
2022/02/24 04:48:54;;;;;;;6.25;2.30;;;;;;;13.63;27.93;101691.63;143722;627;47008;-72
2022/02/24 04:51:20;;;;;;;4.60;1.77;;;;;;;13.69;28.13;101700.81;143719;624;47006;-71
2022/02/24 04:53:47;;;;;;;8.00;2.53;;;;;;;13.64;28.83;101696.84;143719;653;47012;-71
2022/02/24 04:56:13;;;;;;;8.15;2.50;;;;;;;13.58;28.98;101694.09;143717;578;47006;-74
2022/02/24 04:58:40;;;;;;;7.45;2.83;;;;;;;13.63;28.64;101705.13;143722;567;47008;-72
2022/02/24 05:01:06;;;;;;;4.87;2.70;;;;;;;13.62;28.15;101711.53;143721;568;47004;-73
2022/02/24 05:03:32;;;;;;;3.42;1.80;;;;;;;13.56;27.71;101710.47;143719;636;47012;-71
2022/02/24 05:05:59;;;;;;;7.93;2.50;;;;;;;13.51;27.96;101712.91;143716;652;47006;-72
2022/02/24 05:08:25;;;;;;;5.30;1.90;;;;;;;13.48;27.99;101726.81;143723;592;47008;-73
2022/02/24 05:10:54;;;;;;;6.28;2.45;;;;;;;13.40;28.31;101735.00;143718;648;47005;-71
2022/02/24 05:13:20;;;;;;;3.85;2.30;;;;;;;13.40;28.28;101746.66;143714;564;47010;-72
2022/02/24 05:15:47;;;;;;;4.28;2.55;;;;;;;13.44;28.49;101756.03;143718;675;47006;-71
2022/02/24 05:18:14;;;;;;;4.25;1.58;;;;;;;13.47;28.30;101752.13;143719;674;47008;-73
2022/02/24 05:20:40;;;;;;;5.30;2.37;;;;;;;13.41;27.80;101751.03;143720;582;47004;-71
2022/02/24 05:23:07;;;;;;;3.90;2.17;;;;;;;13.43;28.01;101773.25;143717;663;47010;-71
2022/02/24 05:25:36;;;;;;;4.85;1.70;;;;;;;13.46;28.00;101785.53;143719;574;47007;-70
2022/02/24 05:28:10;;;;;;;4.15;2.10;;;;;;;13.51;28.15;101801.16;143717;671;46930;-72
2022/02/24 05:30:37;;;;;;;9.63;2.20;;;;;;;13.56;28.19;101806.81;143715;607;47006;-72
2022/02/24 05:33:04;;;;;;;4.22;2.30;;;;;;;13.52;28.04;101827.13;143716;614;47010;-72
2022/02/24 05:35:31;;;;;;;12.37;2.30;;;;;;;13.58;28.32;101837.97;143717;684;47006;-72
2022/02/24 05:37:57;;;;;;;4.12;1.90;;;;;;;13.58;27.69;101837.16;143716;582;46928;-72
2022/02/24 05:40:24;;;;;;;5.50;1.98;;;;;;;13.63;27.21;101851.75;143718;589;47006;-73
2022/02/24 05:42:50;;;;;;;4.40;2.17;;;;;;;13.59;26.25;101844.22;143718;616;46010;-71
2022/02/24 05:45:16;;;;;;;7.37;2.80;;;;;;;13.67;26.41;101833.28;143715;594;47006;-72
2022/02/24 05:47:43;;;;;;;6.93;1.70;;;;;;;13.61;25.76;101842.16;143717;594;47008;-71
2022/02/24 05:50:10;;;;;;;5.87;1.73;;;;;;;13.63;26.06;101834.69;143720;567;47004;-71
2022/02/24 05:52:37;;;;;;;3.35;1.80;;;;;;;13.64;26.21;101825.56;143722;620;47010;-70
2022/02/24 05:55:05;;;;;;;5.20;1.87;;;;;;;13.63;25.50;101835.56;143713;589;47006;-71
2022/02/24 05:57:31;;;;;;;2.78;1.58;;;;;;;13.62;25.62;101828.47;143719;692;47008;-70
2022/02/24 05:59:58;;;;;;;4.40;1.50;;;;;;;13.67;25.60;101830.59;143721;635;47004;-72
2022/02/24 06:02:24;;;;;;;5.85;1.70;;;;;;;13.72;24.76;101844.38;143717;675;47006;-72
2022/02/24 06:04:50;;;;;;;3.03;1.40;;;;;;;13.74;25.58;101845.00;143719;657;47006;-71
2022/02/24 06:07:17;;;;;;;5.35;1.90;;;;;;;13.79;25.39;101860.63;143715;584;47008;-72
2022/02/24 06:09:43;;;;;;;4.50;1.75;;;;;;;13.74;25.43;101847.72;143721;559;47005;-72
2022/02/24 06:12:10;;;;;;;5.97;1.73;;;;;;;13.73;25.05;101839.78;143719;649;47013;-72
2022/02/24 06:14:36;;;;;;;3.00;1.50;;;;;;;13.86;25.82;101844.50;143718;586;47006;-72
2022/02/24 06:17:03;;;;;;;16.42;8.20;;;;;;;13.97;25.47;101852.06;143718;641;47008;-72
2022/02/24 06:19:29;;;;;;;3.85;2.00;;;;;;;14.00;25.59;101842.75;143715;635;47007;-72
2022/02/24 06:21:56;;;;;;;5.40;2.00;;;;;;;14.03;25.65;101861.28;143714;655;47012;-71
2022/02/24 06:24:22;;;;;;;6.80;1.87;;;;;;;14.00;26.08;101851.69;143718;618;47006;-71
2022/02/24 06:26:49;;;;;;;8.80;2.42;;;;;;;14.02;25.67;101860.44;143720;560;46008;-70
2022/02/24 06:29:16;;;;;;;6.07;1.75;;;;;;;14.00;26.08;101857.09;143716;577;47004;-73
2022/02/24 06:31:43;;;;;;;4.18;1.92;;;;;;;14.07;26.35;101858.00;143719;655;47010;-73
2022/02/24 06:34:09;;;;;;;4.65;1.98;;;;;;;14.10;26.64;101856.75;143718;664;47006;-72
2022/02/24 06:36:35;;;;;;;4.18;1.65;;;;;;;14.11;25.84;101858.44;143719;593;46008;-71
2022/02/24 06:39:02;;;;;;;4.15;3.00;;;;;;;14.15;26.39;101859.72;143721;608;47004;-73
2022/02/24 06:41:29;;;;;;;10.25;7.68;;;;;;;14.22;26.49;101863.31;143713;567;48010;-74
2022/02/24 06:43:56;;;;;;;12.55;6.90;;;;;;;14.20;25.96;101870.78;143714;576;47006;-72
2022/02/24 06:46:23;;;;;;;21.70;14.23;;;;;;;14.22;26.10;101863.31;143716;581;46928;-73
2022/02/24 06:48:49;;;;;;;13.60;7.87;;;;;;;14.17;26.12;101865.78;143715;578;47012;-73
2022/02/24 06:51:16;;;;;;;68.55;44.17;;;;;;;14.21;26.32;101866.22;143715;580;47012;-73
2022/02/24 06:53:42;;;;;;;9.23;4.25;;;;;;;14.23;26.25;101873.09;143714;622;47006;-71
2022/02/24 06:56:08;;;;;;;12.27;8.88;;;;;;;14.30;26.39;101877.72;143717;630;46009;-72
2022/02/24 06:58:35;;;;;;;4.70;2.17;;;;;;;14.30;26.65;101872.31;143714;588;47004;-73
2022/02/24 07:01:02;;;;;;;5.37;1.80;;;;;;;14.39;26.62;101879.25;143717;590;47010;-74
2022/02/24 07:03:29;;;;;;;3.85;1.92;;;;;;;14.50;26.33;101859.81;143719;572;47006;-74
2022/02/24 07:05:55;;;;;;;4.93;2.03;;;;;;;14.51;26.82;101890.34;143713;578;47008;-75
2022/02/24 07:08:22;;;;;;;4.03;2.22;;;;;;;14.59;26.80;101881.25;143717;580;47004;-74
2022/02/24 07:10:48;;;;;;;5.93;1.90;;;;;;;14.61;26.40;101871.09;143716;693;47011;-73
2022/02/24 07:13:15;;;;;;;6.70;1.58;;;;;;;14.60;27.00;101870.28;143718;669;47006;-73
2022/02/24 07:15:41;;;;;;;4.60;1.62;;;;;;;14.69;27.43;101873.69;143721;644;46008;-73
2022/02/24 07:18:07;;;;;;;4.65;1.98;;;;;;;14.80;27.19;101866.91;143716;627;47006;-74
2022/02/24 07:20:34;;;;;;;5.45;2.15;;;;;;;14.85;26.35;101869.81;143717;585;47010;-72
2022/02/24 07:23:00;;;;;;;4.85;2.00;;;;;;;14.94;26.39;101863.22;143717;584;47006;-73
2022/02/24 07:25:27;;;;;;;5.22;1.55;;;;;;;14.84;26.24;101873.56;143717;599;47008;-75
2022/02/24 07:27:53;;;;;;;5.45;1.77;;;;;;;14.81;26.13;101872.09;143719;610;47004;-73
2022/02/24 07:30:20;;;;;;;4.47;1.50;;;;;;;14.91;27.03;101863.63;143716;665;47012;-75
2022/02/24 07:32:46;;;;;;;3.55;1.70;;;;;;;14.98;26.67;101863.66;143714;622;47007;-74
2022/02/24 07:35:13;;;;;;;4.43;1.73;;;;;;;14.98;25.94;101860.94;143720;592;47008;-76
2022/02/24 07:37:39;;;;;;;3.65;1.42;;;;;;;15.00;25.78;101862.41;143719;566;47004;-77
2022/02/24 07:40:06;;;;;;;6.40;1.70;;;;;;;15.04;25.52;101859.31;143718;651;47010;-78
2022/02/24 07:42:34;;;;;;;5.65;2.47;;;;;;;15.12;25.19;101854.56;143719;601;47006;-73
2022/02/24 07:45:02;;;;;;;8.88;2.35;;;;;;;15.04;25.57;101848.50;143718;581;47008;-74
2022/02/24 07:47:29;;;;;;;9.77;1.87;;;;;;;14.96;25.42;101855.75;143719;597;47006;-75
2022/02/24 07:49:55;;;;;;;3.25;1.75;;;;;;;14.93;26.28;101858.84;143716;579;47012;-73
2022/02/24 07:52:22;;;;;;;5.25;1.95;;;;;;;14.78;25.37;101850.03;143718;592;47008;-71
2022/02/24 07:54:49;;;;;;;5.12;1.60;;;;;;;14.74;25.97;101868.50;143719;623;47006;-72
2022/02/24 07:57:15;;;;;;;4.65;1.85;;;;;;;14.84;26.54;101863.59;143717;575;47002;-71
2022/02/24 07:59:41;;;;;;;3.72;2.00;;;;;;;14.91;26.19;101866.34;143718;649;47010;-71
2022/02/24 08:02:08;;;;;;;4.40;1.90;;;;;;;15.04;26.40;101865.56;143715;626;47005;-71
2022/02/24 08:04:34;;;;;;;5.75;2.05;;;;;;;15.12;26.39;101862.69;143718;589;46006;-71
2022/02/24 08:07:01;;;;;;;5.53;2.75;;;;;;;15.12;26.78;101854.56;143717;624;47002;-72
2022/02/24 08:09:27;;;;;;;5.68;2.10;;;;;;;15.09;27.22;101860.37;143718;573;47008;-72
2022/02/24 08:14:38;;;;;;;5.43;1.87;;;;;;;15.17;27.94;101854.00;143718;644;47002;-72
2022/02/24 08:17:06;;;;;;;5.15;2.25;;;;;;;15.33;27.74;101860.91;143716;609;47002;-72
2022/02/24 08:19:32;;;;;;;5.25;1.83;;;;;;;15.48;27.84;101877.00;143715;605;47010;-72
2022/02/24 08:21:58;;;;;;;4.65;1.60;;;;;;;15.53;27.76;101871.78;143712;621;47004;-72
2022/02/24 08:24:25;;;;;;;6.10;1.60;;;;;;;15.64;27.46;101847.88;143718;640;47007;-72
2022/02/24 08:26:52;;;;;;;5.32;2.17;;;;;;;15.85;27.31;101844.16;143721;572;47004;-73
2022/02/24 08:29:19;;;;;;;3.42;1.73;;;;;;;15.93;27.49;101856.72;143717;590;47008;-71
2022/02/24 08:31:45;;;;;;;5.10;1.62;;;;;;;16.06;27.05;101849.44;143717;605;47011;-75
2022/02/24 08:34:12;;;;;;;5.32;1.75;;;;;;;16.16;27.20;101834.63;143721;573;47006;-72
2022/02/24 08:36:38;;;;;;;3.72;1.45;;;;;;;16.25;26.53;101835.25;143718;580;47004;-72
2022/02/24 08:39:05;;;;;;;3.47;1.42;;;;;;;16.29;26.81;101841.94;143717;581;47008;-72
2022/02/24 08:41:33;;;;;;;3.45;1.73;;;;;;;16.37;26.36;101818.16;143717;583;47004;-70
2022/02/24 08:43:59;;;;;;;5.03;2.15;;;;;;;16.48;26.50;101797.69;143717;582;47006;-73
2022/02/24 08:46:25;;;;;;;10.93;1.90;;;;;;;16.52;26.76;101822.50;143715;650;47003;-72
2022/02/24 08:48:52;;;;;;;7.22;2.22;;;;;;;16.56;26.21;101796.63;143716;625;47011;-71
2022/02/24 08:51:18;;;;;;;7.35;2.10;;;;;;;16.69;26.96;101793.06;143714;637;47004;-71
2022/02/24 08:53:45;;;;;;;7.55;2.10;;;;;;;16.94;26.13;101804.03;143721;643;47007;-72
2022/02/24 08:56:12;;;;;;;7.55;2.10;;;;;;;16.90;26.03;101781.09;143718;626;47002;-71
2022/02/24 08:58:38;;;;;;;4.18;1.73;;;;;;;17.04;25.82;101779.19;143719;567;47010;-72
2022/02/24 09:01:05;;;;;;;6.35;2.17;;;;;;;17.13;25.36;101771.63;143716;619;47004;-71
2022/02/24 09:03:31;;;;;;;6.30;2.08;;;;;;;17.05;26.07;101778.16;143717;640;47006;-71
2022/02/24 09:05:58;;;;;;;8.45;3.53;;;;;;;16.89;25.88;101757.72;143715;572;47004;-71
2022/02/24 09:08:24;;;;;;;6.50;2.25;;;;;;;16.85;25.44;101755.66;143716;593;47009;-73
2022/02/24 09:10:50;;;;;;;6.80;2.33;;;;;;;16.70;25.04;101751.34;143714;573;47004;-72
2022/02/24 09:13:17;;;;;;;6.90;2.62;;;;;;;16.71;25.76;101771.97;143717;594;47006;-72
2022/02/24 09:15:43;;;;;;;7.30;2.35;;;;;;;16.80;25.01;101748.16;143715;603;47004;-73
2022/02/24 09:18:10;;;;;;;6.60;2.17;;;;;;;16.83;25.68;101786.53;143716;590;47011;-74
2022/02/24 09:20:37;;;;;;;4.30;1.92;;;;;;;16.66;25.53;101753.66;143714;609;47004;-73
2022/02/24 09:23:03;;;;;;;6.25;1.95;;;;;;;16.71;25.11;101760.28;143719;598;47018;-71
2022/02/24 09:25:30;;;;;;;6.25;2.03;;;;;;;16.71;26.12;101763.84;143717;601;47002;-72
2022/02/24 09:27:56;;;;;;;5.28;1.90;;;;;;;16.89;25.93;101759.59;143716;588;47010;-71
2022/02/24 09:30:23;;;;;;;5.28;1.87;;;;;;;17.13;25.35;101783.31;143720;582;47002;-73
2022/02/24 09:32:51;;;;;;;5.82;2.03;;;;;;;17.02;26.08;101747.91;143719;669;46006;-72
2022/02/24 09:35:17;;;;;;;6.30;2.62;;;;;;;16.97;26.09;101730.38;143715;567;47004;-71
2022/02/24 09:37:44;;;;;;;5.05;2.28;;;;;;;17.15;25.26;101771.41;143719;570;46009;-70
2022/02/24 09:40:11;;;;;;;8.88;2.65;;;;;;;17.16;25.76;101783.94;143718;591;47004;-69
2022/02/24 09:42:38;;;;;;;6.87;2.30;;;;;;;17.49;25.09;101739.44;143719;591;47006;-71
2022/02/24 09:45:05;;;;;;;7.55;2.80;;;;;;;17.92;23.87;101746.84;143715;624;47004;-72
2022/02/24 09:47:31;;;;;;;5.95;2.25;;;;;;;18.42;23.49;101742.41;143716;617;47011;-72
2022/02/24 09:49:59;;;;;;;5.03;2.00;;;;;;;19.00;22.96;101743.81;143719;598;46008;-72
2022/02/24 09:52:26;;;;;;;6.55;2.10;;;;;;;19.99;21.16;101737.09;143721;616;47006;-71
2022/02/24 09:54:53;;;;;;;10.52;2.10;;;;;;;21.96;19.42;101740.91;143718;568;47005;-74
2022/02/24 09:57:19;;;;;;;4.50;1.83;;;;;;;24.75;17.37;101740.81;143715;578;47008;-71
2022/02/24 09:59:45;;;;;;;4.12;1.70;;;;;;;27.43;15.04;101803.97;143714;662;47004;-70
2022/02/24 10:02:13;;;;;;;7.47;1.60;;;;;;;29.37;12.92;101786.69;143720;645;47007;-72
2022/02/24 10:05:06;;;;;;;7.62;2.53;;;;;;;29.96;12.34;101806.50;143719;578;47002;-73
2022/02/24 10:07:37;;;;;;;4.78;2.40;;;;;;;30.63;11.75;101818.25;143714;591;47007;-69
2022/02/24 10:10:26;;;;;;;6.00;2.45;;;;;;;28.95;13.26;101833.44;143715;628;47004;-70
2022/02/24 10:13:08;;;;;;;5.10;1.83;;;;;;;25.39;15.53;101832.22;143718;604;47006;-70
2022/02/24 10:15:40;;;;;;;4.15;1.80;;;;;;;23.45;17.14;101835.12;143721;620;47004;-72
2022/02/24 10:18:12;;;;;;;5.05;2.10;;;;;;;22.48;18.36;101835.53;143716;583;47008;-71
2022/02/24 10:20:50;;;;;;;6.55;4.25;;;;;;;22.04;18.48;101843.59;143718;578;47004;-75
2022/02/24 10:23:19;;;;;;;6.05;2.08;;;;;;;21.43;19.82;101846.84;143718;634;46007;-72
2022/02/24 10:25:52;;;;;;;7.55;1.95;;;;;;;20.95;21.01;101832.50;143716;653;47002;-72
2022/02/24 10:28:49;;;;;;;8.93;2.25;;;;;;;20.84;21.59;101843.22;143714;575;47010;-72
2022/02/24 10:31:26;;;;;;;5.87;1.95;;;;;;;20.84;21.74;101842.38;143714;600;47004;-72
2022/02/24 10:34:22;;;;;;;5.40;1.90;;;;;;;20.78;21.60;101836.00;143718;605;47006;-72
2022/02/24 10:36:48;;;;;;;7.75;2.53;;;;;;;20.73;21.55;101850.34;143715;617;47004;-72
2022/02/24 10:39:21;;;;;;;7.18;1.85;;;;;;;20.67;22.48;101839.56;143717;575;47011;-73
2022/02/24 10:41:49;;;;;;;6.10;1.70;;;;;;;20.44;21.41;101839.34;143715;616;47004;-73
2022/02/24 10:44:25;;;;;;;6.22;1.87;;;;;;;20.36;22.09;101841.59;143720;588;47006;-75
2022/02/24 10:47:20;;;;;;;3.55;1.73;;;;;;;20.43;22.04;101831.38;143718;598;47002;-73
2022/02/24 10:49:50;;;;;;;11.23;3.17;;;;;;;20.48;22.19;101842.41;143721;586;47008;-73
2022/02/24 10:52:18;;;;;;;6.00;1.95;;;;;;;20.33;21.93;101847.53;143715;574;47005;-72
2022/02/24 10:54:57;;;;;;;4.05;2.10;;;;;;;20.18;22.25;101850.69;143717;582;47006;-74
2022/02/24 10:57:25;;;;;;;4.55;1.70;;;;;;;20.35;22.75;101835.28;143718;572;47004;-72
2022/02/24 10:59:55;;;;;;;6.93;2.30;;;;;;;20.49;22.19;101837.78;143717;567;47009;-71
2022/02/24 11:02:24;;;;;;;6.10;2.95;;;;;;;20.48;22.28;101827.91;143714;612;47004;-71
2022/02/24 11:04:54;;;;;;;10.75;2.60;;;;;;;20.48;22.91;101830.66;143716;637;47006;-71
2022/02/24 11:07:22;;;;;;;4.20;1.60;;;;;;;20.42;21.30;101816.06;143715;613;47004;-74
2022/02/24 11:09:49;;;;;;;3.30;1.70;;;;;;;20.33;21.49;101820.22;143716;579;47011;-72
2022/02/24 11:12:17;;;;;;;3.37;1.70;;;;;;;20.26;21.10;101823.09;143718;594;47002;-73
2022/02/24 11:14:47;;;;;;;5.80;2.35;;;;;;;20.32;21.22;101813.13;143718;584;47006;-72
2022/02/24 11:17:14;;;;;;;5.40;1.45;;;;;;;20.37;21.86;101824.16;143716;599;47004;-72
2022/02/24 11:19:45;;;;;;;9.93;1.95;;;;;;;20.40;23.24;101831.84;143720;604;47008;-75
2022/02/24 11:22:12;;;;;;;8.15;3.72;;;;;;;20.20;21.97;101838.50;143713;634;47004;-70
2022/02/24 11:24:39;;;;;;;7.93;3.58;;;;;;;19.91;21.82;101838.31;143719;661;47006;-72
2022/02/24 11:27:33;;;;;;;2.90;2.00;;;;;;;19.93;22.80;101843.56;143715;597;47002;-72
2022/02/24 11:30:13;;;;;;;3.00;1.73;;;;;;;19.97;22.84;101844.72;143714;646;48028;-72